Time;durP1;ratioP1;P1;durP2;ratioP2;P2;SDS_P1;SDS_P2;PMS_P1;PMS_P2;Temp;Humidity;BMP_temperature;BMP_pressure;BME280_temperature;BME280_humidity;BME280_pressure;Samples;Min_cycle;Max_cycle;Signal;HPM_P1;HPM_P2
2023/11/05 00:02:02;;;;;;;17.67;11.60;;;9.90;99.90;;;;;;4997530;28;20046;-60
2023/11/05 00:04:28;;;;;;;20.02;11.30;;;9.90;99.90;;;;;;5014161;28;20388;-58
2023/11/05 00:06:55;;;;;;;19.17;10.60;;;9.90;99.90;;;;;;5013601;28;20053;-60
2023/11/05 00:09:22;;;;;;;17.17;10.98;;;10.00;99.90;;;;;;5014044;28;20042;-59
2023/11/05 00:11:49;;;;;;;22.10;10.65;;;9.90;99.90;;;;;;4997237;28;20056;-59
2023/11/05 00:14:16;;;;;;;19.08;10.23;;;9.90;99.90;;;;;;5013911;28;20053;-60
2023/11/05 00:16:43;;;;;;;20.95;11.00;;;10.00;99.90;;;;;;5014556;28;20038;-60
2023/11/05 00:19:09;;;;;;;18.35;11.32;;;9.90;99.90;;;;;;5014762;28;20065;-59
2023/11/05 00:21:36;;;;;;;20.42;13.02;;;9.90;99.90;;;;;;5013825;28;20486;-59
2023/11/05 00:24:03;;;;;;;24.30;13.88;;;9.90;99.90;;;;;;5014591;28;20506;-59
2023/11/05 00:26:30;;;;;;;22.13;13.52;;;9.90;99.90;;;;;;5013869;28;20182;-59
2023/11/05 00:28:57;;;;;;;21.77;14.20;;;9.90;99.90;;;;;;5013750;28;20042;-58
2023/11/05 00:31:24;;;;;;;26.90;14.77;;;9.90;99.90;;;;;;4996702;28;20100;-59
2023/11/05 00:33:51;;;;;;;27.20;15.57;;;9.90;99.90;;;;;;4996082;28;20100;-59
2023/11/05 00:36:18;;;;;;;26.15;15.95;;;9.90;99.90;;;;;;5014109;28;20068;-59
2023/11/05 00:38:45;;;;;;;27.83;15.98;;;9.90;99.90;;;;;;5013592;28;20046;-58
2023/11/05 00:41:12;;;;;;;25.85;14.98;;;9.90;99.90;;;;;;5013824;28;20140;-58
2023/11/05 00:43:39;;;;;;;21.70;14.55;;;9.90;99.90;;;;;;4995519;28;20398;-59
2023/11/05 00:46:06;;;;;;;23.73;15.43;;;10.00;99.90;;;;;;5013533;28;20133;-58
2023/11/05 00:48:33;;;;;;;23.10;15.02;;;10.00;99.90;;;;;;4996021;28;20541;-58
2023/11/05 00:51:00;;;;;;;21.77;15.52;;;10.00;99.90;;;;;;5014169;28;20042;-60
2023/11/05 00:53:26;;;;;;;36.30;22.63;;;10.00;99.90;;;;;;4996542;28;20408;-58
2023/11/05 00:55:54;;;;;;;27.65;17.55;;;10.00;99.90;;;;;;5014007;28;20468;-59
2023/11/05 00:58:21;;;;;;;25.33;16.35;;;10.00;99.90;;;;;;5013787;28;20041;-59
2023/11/05 01:00:48;;;;;;;23.20;15.73;;;10.00;99.90;;;;;;4996295;28;20054;-59
2023/11/05 01:03:15;;;;;;;24.73;15.90;;;10.00;99.90;;;;;;5014194;28;20046;-59
2023/11/05 01:05:42;;;;;;;26.60;16.95;;;10.00;99.90;;;;;;5013614;28;20046;-58
2023/11/05 01:08:09;;;;;;;27.42;16.45;;;10.00;99.90;;;;;;4996090;28;20038;-59
2023/11/05 01:10:36;;;;;;;28.88;18.45;;;10.00;99.90;;;;;;5014087;28;20541;-58
2023/11/05 01:13:03;;;;;;;33.15;19.27;;;10.00;99.90;;;;;;5013977;28;20124;-58
2023/11/05 01:15:30;;;;;;;27.85;18.58;;;10.10;99.90;;;;;;4996359;28;20586;-59
2023/11/05 01:17:57;;;;;;;31.23;20.33;;;10.00;99.90;;;;;;5013924;28;20038;-59
2023/11/05 01:20:24;;;;;;;31.58;21.98;;;10.10;99.90;;;;;;4996577;28;20045;-58
2023/11/05 01:22:51;;;;;;;35.80;22.30;;;10.10;99.90;;;;;;4996008;28;20061;-58
2023/11/05 01:25:18;;;;;;;31.25;21.15;;;10.10;99.90;;;;;;4995880;28;20097;-58
2023/11/05 01:27:45;;;;;;;32.00;21.25;;;10.10;99.90;;;;;;5013681;28;20499;-63
2023/11/05 01:30:11;;;;;;;34.63;22.02;;;10.00;99.90;;;;;;5013955;28;20062;-63
2023/11/05 01:32:38;;;;;;;33.15;21.65;;;10.00;99.90;;;;;;4995761;28;20034;-59
2023/11/05 01:35:05;;;;;;;33.83;22.83;;;10.00;99.90;;;;;;5013978;28;20121;-59
2023/11/05 01:37:32;;;;;;;33.38;21.92;;;10.00;99.90;;;;;;5013108;28;20042;-58
2023/11/05 01:39:59;;;;;;;32.53;21.98;;;9.90;99.90;;;;;;5012173;28;20058;-57
2023/11/05 01:42:26;;;;;;;37.58;22.33;;;9.90;99.90;;;;;;5013606;28;20084;-58
2023/11/05 01:44:53;;;;;;;32.30;21.13;;;9.90;99.90;;;;;;5013473;28;20470;-59
2023/11/05 01:47:20;;;;;;;35.00;22.48;;;9.80;99.90;;;;;;5013725;28;20161;-59
2023/11/05 01:49:48;;;;;;;34.70;21.42;;;9.80;99.90;;;;;;5013996;28;20050;-60
2023/11/05 01:52:15;;;;;;;35.83;21.40;;;9.80;99.90;;;;;;4996052;28;20045;-59
2023/11/05 01:54:42;;;;;;;33.67;22.70;;;9.70;99.90;;;;;;5013901;28;20088;-59
2023/11/05 01:57:09;;;;;;;30.73;20.50;;;9.70;99.90;;;;;;5013632;28;20380;-59
2023/11/05 01:59:36;;;;;;;32.25;20.73;;;9.70;99.90;;;;;;4995855;28;20057;-58
2023/11/05 02:02:03;;;;;;;36.55;22.67;;;9.70;99.90;;;;;;4996127;28;20104;-59
2023/11/05 02:04:30;;;;;;;36.42;21.80;;;9.60;99.90;;;;;;4995784;28;20057;-59
2023/11/05 02:06:57;;;;;;;36.55;22.08;;;9.60;99.90;;;;;;5013671;28;20084;-59
2023/11/05 02:09:24;;;;;;;32.03;21.90;;;9.50;99.90;;;;;;4997127;28;20100;-57
2023/11/05 02:11:51;;;;;;;35.58;22.15;;;9.50;99.90;;;;;;5013985;28;20034;-58
2023/11/05 02:14:18;;;;;;;33.13;21.48;;;9.50;99.90;;;;;;5014103;28;20049;-58
2023/11/05 02:16:45;;;;;;;37.40;21.42;;;9.50;99.90;;;;;;5013747;28;20100;-59
2023/11/05 02:19:12;;;;;;;37.58;21.80;;;9.50;99.90;;;;;;5012941;28;20044;-58
2023/11/05 02:21:39;;;;;;;34.03;21.23;;;9.50;99.90;;;;;;5013195;28;20050;-59
2023/11/05 02:24:06;;;;;;;32.75;22.27;;;9.60;99.90;;;;;;4996530;28;20052;-58
2023/11/05 02:26:33;;;;;;;35.75;22.40;;;9.60;99.90;;;;;;4995968;28;20383;-59
2023/11/05 02:28:59;;;;;;;41.25;24.80;;;9.50;99.90;;;;;;4997333;28;20096;-58
2023/11/05 02:31:26;;;;;;;42.22;24.25;;;9.50;99.90;;;;;;4997058;28;20095;-58
2023/11/05 02:33:53;;;;;;;40.42;25.33;;;9.50;99.90;;;;;;4996058;28;20045;-60
2023/11/05 02:36:20;;;;;;;39.08;24.48;;;9.50;99.90;;;;;;5012863;28;20046;-59
2023/11/05 02:38:47;;;;;;;39.10;25.27;;;9.50;99.90;;;;;;4995289;28;20105;-59
2023/11/05 02:41:13;;;;;;;40.47;23.58;;;9.50;99.90;;;;;;4993168;28;20058;-59
2023/11/05 02:43:40;;;;;;;37.63;23.58;;;9.50;99.90;;;;;;4993050;28;20042;-59
2023/11/05 02:46:07;;;;;;;40.63;24.48;;;9.50;99.90;;;;;;4993583;28;20046;-59
2023/11/05 02:48:34;;;;;;;34.80;23.73;;;9.50;99.90;;;;;;4993750;28;20134;-59
2023/11/05 02:51:01;;;;;;;33.97;22.55;;;9.50;99.90;;;;;;4994179;28;20065;-63
2023/11/05 02:53:28;;;;;;;35.20;21.13;;;9.50;99.90;;;;;;4995997;28;20065;-64
2023/11/05 02:55:54;;;;;;;36.70;22.10;;;9.60;99.90;;;;;;4996697;28;20101;-64
2023/11/05 02:58:21;;;;;;;34.72;21.65;;;9.60;99.90;;;;;;4995576;28;20133;-64
2023/11/05 03:00:48;;;;;;;33.97;20.73;;;9.50;99.90;;;;;;4997019;28;20046;-64
2023/11/05 03:03:15;;;;;;;29.23;19.08;;;9.50;99.90;;;;;;4995582;28;20042;-64
2023/11/05 03:05:42;;;;;;;31.30;18.92;;;9.60;99.90;;;;;;4996299;28;20125;-64
2023/11/05 03:08:09;;;;;;;29.98;19.42;;;9.50;99.90;;;;;;4996376;28;20041;-64
2023/11/05 03:10:36;;;;;;;31.58;19.73;;;9.50;99.90;;;;;;4996818;28;20096;-64
2023/11/05 03:13:03;;;;;;;29.83;18.25;;;9.50;99.90;;;;;;4979801;28;20046;-63
2023/11/05 03:15:31;;;;;;;31.05;17.73;;;9.60;99.90;;;;;;4996769;28;20041;-63
2023/11/05 03:17:57;;;;;;;29.42;16.27;;;9.60;99.90;;;;;;4995307;28;20054;-64
2023/11/05 03:20:24;;;;;;;25.25;16.17;;;9.50;99.90;;;;;;4996150;28;20050;-63
2023/11/05 03:22:51;;;;;;;28.00;16.70;;;9.50;99.90;;;;;;4996129;28;20412;-63
2023/11/05 03:25:19;;;;;;;28.75;16.30;;;9.50;99.90;;;;;;4996485;28;20042;-63
2023/11/05 03:27:46;;;;;;;26.42;16.05;;;9.50;99.90;;;;;;4996029;28;20109;-63
2023/11/05 03:30:12;;;;;;;31.35;15.98;;;9.50;99.90;;;;;;4995144;28;20039;-63
2023/11/05 03:32:40;;;;;;;31.73;15.07;;;9.50;99.90;;;;;;4996318;28;20053;-63
2023/11/05 03:35:08;;;;;;;27.10;14.75;;;9.60;99.90;;;;;;4995979;28;20542;-63
2023/11/05 03:37:34;;;;;;;26.73;15.10;;;9.60;99.90;;;;;;4994526;28;20130;-63
2023/11/05 03:40:02;;;;;;;26.08;14.63;;;9.50;99.90;;;;;;4995303;28;20054;-63
2023/11/05 03:42:30;;;;;;;28.10;15.48;;;9.50;99.90;;;;;;4995530;28;20052;-63
2023/11/05 03:44:57;;;;;;;31.27;15.65;;;9.50;99.90;;;;;;4994713;28;20050;-59
2023/11/05 03:47:24;;;;;;;28.15;15.20;;;9.50;99.90;;;;;;4994667;28;20048;-59
2023/11/05 03:49:51;;;;;;;28.98;14.50;;;9.50;99.90;;;;;;4995450;28;20042;-59
2023/11/05 03:52:18;;;;;;;26.08;14.32;;;9.50;99.90;;;;;;4994309;28;20563;-59
2023/11/05 03:54:45;;;;;;;25.70;14.45;;;9.50;99.90;;;;;;4994248;28;20093;-59
2023/11/05 03:57:12;;;;;;;25.80;14.35;;;9.50;99.90;;;;;;4995647;28;20074;-58
2023/11/05 03:59:38;;;;;;;32.75;14.80;;;9.40;99.90;;;;;;4995146;28;20046;-58
2023/11/05 04:02:06;;;;;;;29.98;14.93;;;9.40;99.90;;;;;;4995535;28;20407;-59
2023/11/05 04:04:33;;;;;;;26.27;14.15;;;9.40;99.90;;;;;;4995519;28;20483;-59
2023/11/05 04:07:04;;;;;;;30.83;15.00;;;9.40;99.90;;;;;;4995581;28;20557;-59
2023/11/05 04:09:32;;;;;;;33.65;14.95;;;9.40;99.90;;;;;;4995538;28;20411;-59
2023/11/05 04:11:59;;;;;;;31.25;14.82;;;9.40;99.90;;;;;;4995453;28;20034;-59
2023/11/05 04:14:26;;;;;;;28.40;15.20;;;9.30;99.90;;;;;;4995668;28;20373;-59
2023/11/05 04:16:53;;;;;;;29.83;15.63;;;9.30;99.90;;;;;;4995104;28;20050;-59
2023/11/05 04:19:20;;;;;;;26.73;15.23;;;9.30;99.90;;;;;;4995189;28;20488;-58
2023/11/05 04:21:47;;;;;;;33.33;15.43;;;9.40;99.90;;;;;;4995287;28;20049;-59
2023/11/05 04:24:14;;;;;;;28.58;15.23;;;9.30;99.90;;;;;;4995454;28;20106;-57
2023/11/05 04:26:40;;;;;;;26.08;13.82;;;9.30;99.90;;;;;;4994752;28;20062;-59
2023/11/05 04:29:07;;;;;;;29.15;14.95;;;9.30;99.90;;;;;;4994984;28;20034;-58
2023/11/05 04:31:34;;;;;;;30.60;15.52;;;9.40;99.90;;;;;;4994789;28;20046;-57
2023/11/05 04:34:01;;;;;;;30.58;16.70;;;9.30;99.90;;;;;;4995261;28;20121;-63
2023/11/05 04:36:28;;;;;;;30.20;14.63;;;9.30;99.90;;;;;;4994664;28;20049;-63
2023/11/05 04:38:55;;;;;;;31.77;14.95;;;9.20;99.90;;;;;;4995209;28;20077;-63
2023/11/05 04:41:22;;;;;;;31.23;14.73;;;9.30;99.90;;;;;;4994910;28;20057;-63
2023/11/05 04:43:49;;;;;;;26.20;15.23;;;9.20;99.90;;;;;;4994009;28;20042;-64
2023/11/05 04:46:15;;;;;;;28.00;14.90;;;9.20;99.90;;;;;;4994957;28;20502;-63
2023/11/05 04:48:42;;;;;;;28.50;15.35;;;9.20;99.90;;;;;;4994560;28;20484;-63
2023/11/05 04:51:09;;;;;;;31.23;15.38;;;9.20;99.90;;;;;;4994973;28;20043;-64
2023/11/05 04:53:36;;;;;;;28.42;15.63;;;9.20;99.90;;;;;;4994919;28;20049;-64
2023/11/05 04:56:03;;;;;;;29.50;15.55;;;9.20;99.90;;;;;;4995476;28;20062;-63
2023/11/05 04:58:30;;;;;;;30.27;15.77;;;9.10;99.90;;;;;;4993160;28;20137;-64
2023/11/05 05:00:57;;;;;;;23.95;15.00;;;9.10;99.90;;;;;;4994479;28;20046;-64
2023/11/05 05:03:24;;;;;;;32.80;16.02;;;9.10;99.90;;;;;;4994307;28;20050;-64
2023/11/05 05:05:51;;;;;;;33.67;16.17;;;9.10;99.90;;;;;;4994124;28;20058;-63
2023/11/05 05:08:18;;;;;;;33.85;16.50;;;9.10;99.90;;;;;;4994147;28;20042;-64
2023/11/05 05:10:45;;;;;;;31.90;15.60;;;9.10;99.90;;;;;;4994215;28;20048;-66
2023/11/05 05:13:14;;;;;;;26.13;14.45;;;9.10;99.90;;;;;;4994253;28;20062;-64
2023/11/05 05:15:41;;;;;;;28.25;14.90;;;9.10;99.90;;;;;;4994392;28;20476;-63
2023/11/05 05:18:08;;;;;;;28.98;15.13;;;9.10;99.90;;;;;;4994259;28;20495;-64
2023/11/05 05:20:35;;;;;;;27.73;15.77;;;9.10;99.90;;;;;;4992909;28;20161;-63
2023/11/05 05:23:01;;;;;;;27.67;15.90;;;9.10;99.90;;;;;;4994493;28;20042;-63
2023/11/05 05:25:29;;;;;;;27.50;16.02;;;9.10;99.90;;;;;;4994319;28;20117;-63
2023/11/05 05:27:56;;;;;;;27.17;16.35;;;9.10;99.90;;;;;;4994085;28;20038;-64
2023/11/05 05:30:22;;;;;;;28.42;15.93;;;9.10;99.90;;;;;;4994471;28;20077;-63
2023/11/05 05:32:50;;;;;;;25.58;16.05;;;9.10;99.90;;;;;;4994187;28;20488;-63
2023/11/05 05:35:17;;;;;;;26.40;16.45;;;9.10;99.90;;;;;;4994456;28;20054;-64
2023/11/05 05:37:44;;;;;;;27.38;15.88;;;9.10;99.90;;;;;;4994145;28;20125;-63
2023/11/05 05:40:11;;;;;;;26.88;17.55;;;9.10;99.90;;;;;;4993586;28;20058;-63
2023/11/05 05:42:40;;;;;;;30.05;16.95;;;9.10;99.90;;;;;;4993775;28;20066;-64
2023/11/05 05:45:07;;;;;;;28.65;17.85;;;9.20;99.90;;;;;;4994134;28;20499;-64
2023/11/05 05:47:33;;;;;;;32.83;18.15;;;9.20;99.90;;;;;;4993792;28;20070;-64
2023/11/05 05:50:00;;;;;;;26.73;17.83;;;9.20;99.90;;;;;;4994056;28;20038;-63
2023/11/05 05:52:27;;;;;;;32.92;18.38;;;9.10;99.90;;;;;;4992416;28;20053;-63
2023/11/05 05:54:54;;;;;;;29.70;18.15;;;9.10;99.90;;;;;;4993497;28;20038;-64
2023/11/05 05:57:21;;;;;;;31.02;19.45;;;9.10;99.90;;;;;;4993855;28;20096;-64
2023/11/05 05:59:48;;;;;;;33.60;18.83;;;9.10;99.90;;;;;;4994262;28;20121;-63
2023/11/05 06:02:15;;;;;;;30.08;19.85;;;9.10;99.90;;;;;;4993731;28;20061;-62
2023/11/05 06:04:42;;;;;;;30.45;18.98;;;9.10;99.90;;;;;;4993844;28;20092;-62
2023/11/05 06:07:09;;;;;;;29.27;18.63;;;9.10;99.90;;;;;;4993588;28;20038;-62
2023/11/05 06:09:36;;;;;;;29.40;18.80;;;9.10;99.90;;;;;;4993904;28;20042;-61
2023/11/05 06:12:02;;;;;;;25.42;17.85;;;9.10;99.90;;;;;;4993482;28;20057;-64
2023/11/05 06:14:29;;;;;;;30.20;18.80;;;9.10;99.90;;;;;;4993931;28;20053;-63
2023/11/05 06:17:10;;;;;;;27.05;17.70;;;9.10;99.90;;;;;;4993664;28;20044;-63
2023/11/05 06:19:37;;;;;;;25.88;17.38;;;9.00;99.90;;;;;;4991974;28;20403;-63
2023/11/05 06:22:04;;;;;;;23.85;15.57;;;9.00;99.90;;;;;;4993308;28;20141;-63
2023/11/05 06:24:31;;;;;;;24.98;15.10;;;9.10;99.90;;;;;;4993528;28;20139;-62
2023/11/05 06:26:58;;;;;;;25.60;15.60;;;9.00;99.90;;;;;;4997102;28;20488;-62
2023/11/05 06:29:25;;;;;;;22.05;14.80;;;9.00;99.90;;;;;;4997527;28;20054;-62
2023/11/05 06:31:51;;;;;;;21.90;13.38;;;9.10;99.90;;;;;;4996937;28;20383;-63
2023/11/05 06:34:18;;;;;;;21.67;13.18;;;9.00;99.90;;;;;;4997089;28;20443;-62
2023/11/05 06:36:45;;;;;;;18.38;12.88;;;9.10;99.90;;;;;;4997130;28;20069;-62
2023/11/05 06:39:12;;;;;;;17.63;12.35;;;9.10;99.90;;;;;;4997103;28;20590;-62
2023/11/05 06:41:39;;;;;;;17.77;12.35;;;9.10;99.90;;;;;;4997328;28;20133;-63
2023/11/05 06:44:06;;;;;;;21.38;12.68;;;9.00;99.90;;;;;;4997398;28;20050;-63
2023/11/05 06:46:33;;;;;;;17.98;12.23;;;9.00;99.90;;;;;;4996959;28;20097;-63
2023/11/05 06:49:00;;;;;;;18.40;11.45;;;9.10;99.90;;;;;;4996571;28;20038;-62
2023/11/05 06:51:27;;;;;;;15.57;11.15;;;9.10;99.90;;;;;;4996956;28;20435;-63
2023/11/05 06:53:55;;;;;;;15.05;9.73;;;9.10;99.90;;;;;;4995956;28;20045;-58
2023/11/05 06:56:21;;;;;;;15.60;9.73;;;9.10;99.90;;;;;;4997064;28;20044;-58
2023/11/05 06:58:48;;;;;;;13.73;9.50;;;9.10;99.90;;;;;;4996758;28;20372;-56
2023/11/05 07:01:18;;;;;;;14.18;9.75;;;9.10;99.90;;;;;;4996932;28;20447;-56
2023/11/05 07:03:45;;;;;;;13.90;8.77;;;9.10;99.90;;;;;;4996847;28;20488;-57
2023/11/05 07:06:12;;;;;;;13.82;8.88;;;9.10;99.90;;;;;;4997189;28;20049;-55
2023/11/05 07:08:39;;;;;;;14.10;8.50;;;9.10;99.90;;;;;;4996552;28;20455;-57
2023/11/05 07:11:06;;;;;;;15.40;8.70;;;9.10;99.90;;;;;;4997328;28;20038;-56
2023/11/05 07:13:33;;;;;;;9.73;7.32;;;9.10;99.90;;;;;;4997978;28;20114;-62
2023/11/05 07:15:59;;;;;;;12.07;7.40;;;9.10;99.90;;;;;;4997071;28;20046;-62
2023/11/05 07:18:26;;;;;;;12.07;7.65;;;9.10;99.90;;;;;;4996590;28;20130;-62
2023/11/05 07:20:53;;;;;;;10.75;7.60;;;9.10;99.90;;;;;;4996240;28;20057;-62
2023/11/05 07:23:20;;;;;;;11.35;6.97;;;9.10;99.90;;;;;;4996295;28;20096;-62
2023/11/05 07:25:47;;;;;;;12.57;6.93;;;9.10;99.90;;;;;;4996225;28;20448;-63
2023/11/05 07:28:14;;;;;;;11.32;6.30;;;9.00;99.90;;;;;;4996009;28;20053;-58
2023/11/05 07:30:41;;;;;;;11.02;6.20;;;9.10;99.90;;;;;;4996465;28;20050;-58
2023/11/05 07:33:10;;;;;;;13.48;6.25;;;9.00;99.90;;;;;;4996095;28;20041;-58
2023/11/05 07:35:37;;;;;;;11.60;5.95;;;9.10;99.90;;;;;;4996145;28;20069;-58
2023/11/05 07:38:04;;;;;;;8.65;5.30;;;9.10;99.90;;;;;;4993880;28;20046;-56
2023/11/05 07:40:31;;;;;;;10.63;6.13;;;9.10;99.90;;;;;;4995793;28;20074;-58
2023/11/05 07:42:58;;;;;;;12.07;5.80;;;9.10;99.90;;;;;;4996188;28;20214;-57
2023/11/05 07:45:25;;;;;;;10.05;5.28;;;9.10;99.90;;;;;;4995903;28;20077;-57
2023/11/05 07:47:52;;;;;;;12.55;5.35;;;9.20;99.90;;;;;;4995911;28;20050;-58
2023/11/05 07:50:19;;;;;;;9.90;5.47;;;9.20;99.90;;;;;;4996285;28;20042;-58
2023/11/05 07:52:46;;;;;;;12.75;5.35;;;9.20;99.90;;;;;;4995370;28;20046;-57
2023/11/05 07:55:13;;;;;;;8.80;5.20;;;9.20;99.90;;;;;;4995707;28;20038;-57
2023/11/05 07:57:41;;;;;;;10.80;5.38;;;9.20;99.90;;;;;;4995225;28;20042;-57
2023/11/05 08:00:08;;;;;;;12.95;5.55;;;9.20;99.90;;;;;;4995356;28;20046;-55
2023/11/05 08:02:38;;;;;;;8.20;5.07;;;9.30;99.90;;;;;;4995802;28;20057;-57
2023/11/05 08:05:06;;;;;;;8.63;4.22;;;9.30;99.90;;;;;;4995982;28;20399;-58
2023/11/05 08:07:33;;;;;;;10.63;4.65;;;9.30;99.90;;;;;;4995167;28;20050;-56
2023/11/05 08:10:00;;;;;;;8.50;4.10;;;9.30;99.90;;;;;;4995484;28;20045;-58
2023/11/05 08:12:27;;;;;;;8.75;3.72;;;9.30;99.90;;;;;;4995689;28;20121;-58
2023/11/05 08:14:54;;;;;;;7.03;3.55;;;9.30;99.90;;;;;;4995213;28;20116;-57
2023/11/05 08:17:21;;;;;;;8.68;3.72;;;9.20;99.90;;;;;;4995154;28;20121;-57
2023/11/05 08:19:48;;;;;;;8.70;3.63;;;9.20;99.90;;;;;;4995673;28;20093;-57
2023/11/05 08:22:15;;;;;;;7.50;3.42;;;9.20;99.90;;;;;;4995064;28;20116;-57
2023/11/05 08:24:42;;;;;;;6.88;3.55;;;9.20;99.90;;;;;;4995437;28;20112;-58
2023/11/05 08:27:10;;;;;;;8.02;3.40;;;9.20;99.90;;;;;;4994972;28;20034;-58
2023/11/05 08:29:37;;;;;;;8.02;3.10;;;9.20;99.90;;;;;;4995139;28;20044;-62
2023/11/05 08:32:04;;;;;;;8.00;3.42;;;9.30;99.90;;;;;;4995946;28;20345;-63
2023/11/05 08:34:31;;;;;;;8.40;3.10;;;9.30;99.90;;;;;;4995039;28;20053;-63
2023/11/05 08:36:59;;;;;;;5.90;2.75;;;9.30;99.90;;;;;;4994904;28;20034;-63
2023/11/05 08:39:27;;;;;;;5.68;2.63;;;9.30;99.90;;;;;;4994898;28;20073;-62
2023/11/05 08:41:54;;;;;;;5.13;2.17;;;9.30;99.90;;;;;;4994766;28;20061;-63
2023/11/05 08:44:21;;;;;;;5.22;2.42;;;9.30;99.90;;;;;;4995096;28;20045;-63
2023/11/05 08:46:48;;;;;;;6.90;2.10;;;9.40;99.90;;;;;;4995182;28;20073;-63
2023/11/05 08:49:15;;;;;;;5.00;1.92;;;9.40;99.90;;;;;;4992352;28;20062;-63
2023/11/05 08:51:42;;;;;;;6.70;2.13;;;9.40;99.90;;;;;;4994451;28;20048;-63
2023/11/05 08:54:10;;;;;;;4.40;1.83;;;9.50;99.90;;;;;;4994777;28;20038;-64
2023/11/05 08:56:37;;;;;;;5.35;1.85;;;9.50;99.90;;;;;;4994303;28;20034;-63
2023/11/05 08:59:04;;;;;;;8.55;1.90;;;9.40;99.90;;;;;;4993045;28;20038;-63
2023/11/05 09:01:31;;;;;;;5.93;1.77;;;9.40;99.90;;;;;;4993267;28;20042;-63
2023/11/05 09:03:58;;;;;;;4.70;1.73;;;9.40;99.90;;;;;;4994930;28;20046;-63
2023/11/05 09:06:25;;;;;;;6.93;1.80;;;9.40;99.90;;;;;;4994451;28;20077;-63
2023/11/05 09:08:53;;;;;;;3.58;1.73;;;9.40;99.90;;;;;;4994354;28;20399;-63
2023/11/05 09:11:21;;;;;;;6.30;1.65;;;9.40;99.90;;;;;;4994665;28;20042;-63
2023/11/05 09:13:49;;;;;;;5.30;1.50;;;9.50;99.90;;;;;;4994678;28;20550;-63
2023/11/05 09:16:17;;;;;;;3.83;1.45;;;9.50;99.90;;;;;;4995267;28;20049;-63
2023/11/05 09:18:45;;;;;;;3.70;1.70;;;9.50;99.90;;;;;;5014369;28;20459;-63
2023/11/05 09:21:12;;;;;;;4.75;1.63;;;9.50;99.90;;;;;;5013796;28;20376;-63
2023/11/05 09:23:39;;;;;;;3.90;1.33;;;9.60;99.90;;;;;;5013994;28;20483;-63
2023/11/05 09:26:06;;;;;;;4.70;1.35;;;9.60;99.90;;;;;;5013829;28;20045;-64
2023/11/05 09:28:33;;;;;;;4.13;1.60;;;9.70;99.90;;;;;;5013437;28;20044;-63
2023/11/05 09:31:00;;;;;;;4.50;1.40;;;9.70;99.90;;;;;;5014209;28;20038;-63
2023/11/05 09:33:27;;;;;;;4.32;1.48;;;9.80;99.90;;;;;;5013814;28;20395;-63
2023/11/05 09:35:54;;;;;;;4.10;1.25;;;9.90;99.90;;;;;;4995975;28;20046;-63
2023/11/05 09:38:21;;;;;;;4.20;1.50;;;9.90;99.90;;;;;;5013459;28;20041;-63
2023/11/05 09:40:48;;;;;;;3.67;1.23;;;10.00;99.90;;;;;;5013372;28;20062;-63
2023/11/05 09:43:17;;;;;;;2.97;1.20;;;10.00;99.90;;;;;;5013741;28;20125;-63
2023/11/05 09:45:44;;;;;;;5.78;1.77;;;10.10;99.90;;;;;;5013580;28;20045;-64
2023/11/05 09:48:14;;;;;;;4.63;1.23;;;10.10;99.90;;;;;;5013531;28;20033;-64
2023/11/05 09:50:41;;;;;;;4.80;1.88;;;10.20;99.90;;;;;;4979951;28;20100;-59
2023/11/05 09:53:10;;;;;;;6.13;1.60;;;10.20;99.90;;;;;;5013354;28;20499;-58
2023/11/05 09:55:41;;;;;;;3.75;1.27;;;10.20;99.90;;;;;;5013466;28;20461;-58
2023/11/05 09:58:08;;;;;;;3.15;1.40;;;10.20;99.90;;;;;;5013741;28;20501;-59
2023/11/05 10:00:36;;;;;;;4.07;1.30;;;10.20;99.90;;;;;;5015224;28;20121;-57
2023/11/05 10:03:03;;;;;;;4.57;1.50;;;10.20;99.90;;;;;;5017426;28;20054;-59
2023/11/05 10:05:30;;;;;;;6.15;1.27;;;10.30;99.90;;;;;;5017796;28;20042;-57
2023/11/05 10:07:57;;;;;;;5.45;1.33;;;10.30;99.90;;;;;;5017012;28;20104;-56
2023/11/05 10:10:24;;;;;;;4.10;1.35;;;10.30;99.90;;;;;;5017477;28;20061;-57
2023/11/05 10:12:51;;;;;;;3.28;1.13;;;10.30;99.90;;;;;;5017230;28;20041;-56
2023/11/05 10:15:19;;;;;;;3.70;1.30;;;10.30;99.90;;;;;;5016878;28;20041;-55
2023/11/05 10:17:46;;;;;;;4.57;1.55;;;10.30;99.90;;;;;;5016891;28;20037;-56
2023/11/05 10:20:13;;;;;;;5.20;1.65;;;10.30;99.90;;;;;;4999850;28;20464;-58
2023/11/05 10:22:43;;;;;;;6.15;1.42;;;10.30;99.90;;;;;;5017365;28;20049;-55
2023/11/05 10:25:11;;;;;;;3.50;1.20;;;10.40;99.90;;;;;;5017198;28;20121;-57
2023/11/05 10:27:38;;;;;;;4.38;1.27;;;10.40;99.90;;;;;;5016638;28;20457;-56
2023/11/05 10:30:05;;;;;;;4.55;1.02;;;10.50;99.90;;;;;;5016666;28;20099;-58
2023/11/05 10:32:32;;;;;;;4.20;1.38;;;10.50;99.90;;;;;;5016804;28;20034;-57
2023/11/05 10:34:59;;;;;;;4.25;1.20;;;10.60;99.90;;;;;;5017055;28;20041;-58
2023/11/05 10:37:26;;;;;;;3.45;1.20;;;10.60;99.90;;;;;;5016441;28;20061;-57
2023/11/05 10:39:53;;;;;;;5.50;1.52;;;10.70;99.90;;;;;;5016414;28;20112;-56
2023/11/05 10:42:20;;;;;;;5.07;1.10;;;10.70;99.90;;;;;;5015454;28;20495;-55
2023/11/05 10:44:47;;;;;;;3.13;1.02;;;10.80;99.90;;;;;;5015636;28;20491;-56
2023/11/05 10:47:15;;;;;;;4.60;1.20;;;10.90;99.90;;;;;;5016143;28;20057;-57
2023/11/05 10:49:42;;;;;;;2.97;0.95;;;10.90;99.90;;;;;;5016434;28;20121;-57
2023/11/05 10:52:09;;;;;;;3.70;1.08;;;10.90;99.90;;;;;;5016403;28;20562;-57
2023/11/05 10:54:37;;;;;;;3.70;1.13;;;10.90;99.90;;;;;;5016255;28;20510;-56
2023/11/05 10:57:05;;;;;;;2.47;0.93;;;11.00;99.90;;;;;;5016582;28;20361;-57
2023/11/05 10:59:32;;;;;;;3.65;1.05;;;11.00;99.90;;;;;;5016564;28;20387;-56
2023/11/05 11:01:59;;;;;;;6.72;1.00;;;11.00;99.90;;;;;;4999036;28;20376;-55
2023/11/05 11:04:27;;;;;;;5.78;1.08;;;11.10;99.90;;;;;;5016028;28;20117;-56
2023/11/05 11:06:54;;;;;;;4.78;1.60;;;11.10;99.90;;;;;;5016108;28;20046;-56
2023/11/05 11:09:25;;;;;;;3.17;1.10;;;11.20;99.90;;;;;;5016126;28;20070;-56
2023/11/05 11:11:52;;;;;;;5.13;0.80;;;11.30;99.90;;;;;;5015108;28;20030;-57
2023/11/05 11:14:19;;;;;;;3.03;0.90;;;11.30;99.90;;;;;;5016514;28;20046;-56
2023/11/05 11:16:46;;;;;;;2.50;1.00;;;11.40;99.90;;;;;;5016014;28;20046;-56
2023/11/05 11:19:13;;;;;;;5.72;1.10;;;11.40;99.90;;;;;;5015677;28;20422;-56
2023/11/05 11:21:40;;;;;;;4.78;1.40;;;11.40;99.90;;;;;;5015637;28;20483;-57
2023/11/05 11:24:07;;;;;;;3.55;1.05;;;11.50;99.90;;;;;;5015870;28;20042;-57
2023/11/05 11:26:36;;;;;;;2.38;0.80;;;11.50;99.90;;;;;;5015996;28;20061;-56
2023/11/05 11:29:04;;;;;;;3.97;1.10;;;11.60;99.90;;;;;;5016363;28;20052;-57
2023/11/05 11:31:31;;;;;;;5.18;0.80;;;11.70;99.90;;;;;;5015701;28;20042;-55
2023/11/05 11:33:58;;;;;;;3.80;0.95;;;11.80;99.90;;;;;;5016075;28;20044;-62
2023/11/05 11:36:25;;;;;;;3.30;1.10;;;11.90;99.90;;;;;;4998102;28;20069;-62
2023/11/05 11:38:52;;;;;;;2.70;0.90;;;11.90;99.90;;;;;;5015573;28;20418;-62
2023/11/05 11:41:19;;;;;;;2.80;0.90;;;12.00;99.90;;;;;;4994749;28;20065;-62
2023/11/05 11:43:46;;;;;;;2.10;0.90;;;12.00;99.90;;;;;;4997394;28;20050;-62
2023/11/05 11:46:13;;;;;;;4.15;1.33;;;12.10;99.90;;;;;;4996365;28;20046;-62
2023/11/05 11:48:41;;;;;;;3.58;1.08;;;12.00;99.90;;;;;;4995808;28;20034;-62
2023/11/05 11:51:08;;;;;;;3.00;0.90;;;12.10;99.90;;;;;;4995772;28;20039;-62
2023/11/05 11:53:39;;;;;;;3.08;1.15;;;12.20;99.90;;;;;;4995814;28;20118;-62
2023/11/05 11:56:06;;;;;;;3.88;1.33;;;12.10;99.90;;;;;;4995575;28;20062;-62
2023/11/05 11:58:33;;;;;;;3.97;0.93;;;12.20;99.90;;;;;;4994433;28;20050;-62
2023/11/05 12:01:00;;;;;;;2.92;0.93;;;12.20;99.90;;;;;;4996032;28;20050;-62
2023/11/05 12:03:27;;;;;;;3.05;1.00;;;12.20;99.90;;;;;;4994370;28;20550;-62
2023/11/05 12:05:58;;;;;;;3.95;2.13;;;12.30;99.90;;;;;;4995500;28;20046;-62
2023/11/05 12:08:26;;;;;;;3.50;0.93;;;12.40;99.90;;;;;;4995770;28;20058;-62
2023/11/05 12:10:53;;;;;;;2.38;0.77;;;12.40;99.90;;;;;;4994560;28;20054;-63
2023/11/05 12:13:20;;;;;;;3.28;1.05;;;12.50;99.90;;;;;;4995395;28;20050;-63
2023/11/05 12:15:47;;;;;;;4.97;1.20;;;12.50;99.90;;;;;;4995166;28;20546;-62
2023/11/05 12:18:14;;;;;;;2.72;0.85;;;12.40;99.90;;;;;;4994913;28;20085;-63
2023/11/05 12:20:41;;;;;;;5.85;1.20;;;12.40;99.90;;;;;;4995670;28;20041;-63
2023/11/05 12:23:08;;;;;;;4.82;1.10;;;12.40;99.90;;;;;;4994964;28;20419;-62
2023/11/05 12:25:36;;;;;;;3.90;1.27;;;12.50;99.90;;;;;;4995525;28;20053;-63
2023/11/05 12:28:03;;;;;;;3.28;0.90;;;12.50;99.90;;;;;;4994871;28;20046;-62
2023/11/05 12:30:31;;;;;;;4.00;1.13;;;12.50;99.90;;;;;;4995132;28;20129;-63
2023/11/05 12:32:58;;;;;;;3.65;1.00;;;12.60;99.90;;;;;;4994995;28;20034;-62
2023/11/05 12:35:26;;;;;;;5.88;3.05;;;12.60;99.90;;;;;;4995074;28;20055;-62
2023/11/05 12:37:53;;;;;;;3.30;1.10;;;12.60;99.90;;;;;;4994983;28;20043;-63
2023/11/05 12:40:20;;;;;;;2.63;0.90;;;12.60;99.90;;;;;;5005545;28;20054;-62
2023/11/05 12:42:47;;;;;;;4.38;1.00;;;12.70;99.90;;;;;;5015080;28;20116;-62